< < Back
Terminal Aerodrome Forecast


Current Version              Previous Versions:   1  2  3  4  5  6  7  8  9  

Terminal Aerodrome Forecast

983
FTUS44 KOHX 030500
TAFCSV
TAF
KCSV 030525Z 0306/0406 11004KT P6SM VCSH BKN029 OVC070
     FM030900 VRB03KT 4SM BR VCSH OVC006
     FM031200 18007KT 2SM -SHRA BR OVC003
     FM031800 21013G20KT 2SM -SHRA BR OVC003=

Latest METAR

423
SAUS70 KWBC 031500
MTRCSV
METAR KCSV 031453Z AUTO VRB06KT 6SM BR OVC003 10/09 A3016 RMK AO2 SLP212
T01000089 58001


USA.gov is the U.S. government's official web portal to all federal, state and local government web resources and services.